Time;durP1;ratioP1;P1;durP2;ratioP2;P2;SDS_P1;SDS_P2;PMS_P1;PMS_P2;Temp;Humidity;BMP_temperature;BMP_pressure;BME280_temperature;BME280_humidity;BME280_pressure;Samples;Min_cycle;Max_cycle;Signal;HPM_P1;HPM_P2
2022/05/02 00:02:22;;;;;;;6.90;4.20;;;6.60;99.90;;;;;;5109817;28;20039;-77
2022/05/02 00:04:48;;;;;;;5.43;4.10;;;7.70;99.90;;;;;;5110929;28;20540;-76
2022/05/02 00:07:14;;;;;;;6.35;4.47;;;6.50;99.90;;;;;;5109673;28;20135;-76
2022/05/02 00:09:40;;;;;;;4.47;4.00;;;6.50;99.90;;;;;;5072543;28;20130;-76
2022/05/02 00:12:06;;;;;;;5.60;4.05;;;6.20;99.90;;;;;;5080601;28;20117;-76
2022/05/02 00:14:32;;;;;;;6.22;3.83;;;6.50;99.90;;;;;;5109834;28;20503;-76
2022/05/02 00:16:58;;;;;;;4.72;3.42;;;6.50;99.90;;;;;;5110591;28;20087;-76
2022/05/02 00:19:24;;;;;;;7.30;4.45;;;8.30;99.90;;;;;;5110181;28;20043;-76
2022/05/02 00:21:49;;;;;;;4.75;4.22;;;6.50;99.90;;;;;;5109729;28;20379;-77
2022/05/02 00:24:15;;;;;;;4.57;3.97;;;6.50;99.90;;;;;;5109981;27;20036;-76
2022/05/02 00:26:41;;;;;;;5.22;3.55;;;6.90;99.90;;;;;;5110146;28;20027;-76
2022/05/02 00:29:07;;;;;;;5.32;4.03;;;6.40;99.90;;;;;;5110414;28;20063;-76
2022/05/02 00:31:33;;;;;;;4.38;3.97;;;6.40;99.90;;;;;;5109404;28;20038;-76
2022/05/02 00:33:59;;;;;;;6.50;4.05;;;6.20;99.90;;;;;;5108735;28;20078;-76
2022/05/02 00:36:25;;;;;;;4.85;4.45;;;6.40;99.90;;;;;;5110483;28;20061;-76
2022/05/02 00:38:51;;;;;;;4.35;3.67;;;8.00;99.90;;;;;;5109663;28;20050;-76
2022/05/02 00:41:18;;;;;;;6.50;4.00;;;6.30;99.90;;;;;;5110911;28;20027;-76
2022/05/02 00:43:44;;;;;;;4.88;4.13;;;6.30;99.90;;;;;;5109539;28;20075;-76
2022/05/02 00:46:19;;;;;;;7.95;4.43;;;7.20;99.90;;;;;;5108867;28;20071;-76
2022/05/02 00:48:46;;;;;;;6.43;4.40;;;6.40;99.90;;;;;;5109984;28;20091;-77
2022/05/02 00:51:12;;;;;;;5.85;4.20;;;6.30;99.90;;;;;;5109758;28;20096;-76
2022/05/02 00:53:39;;;;;;;4.65;4.13;;;6.30;99.90;;;;;;5092461;28;20463;-76
2022/05/02 00:56:06;;;;;;;6.35;4.43;;;6.30;99.90;;;;;;5109912;27;20054;-76
2022/05/02 00:58:35;;;;;;;4.97;4.03;;;6.30;99.90;;;;;;5108444;28;20035;-75
2022/05/02 01:01:02;;;;;;;4.85;4.07;;;6.20;99.90;;;;;;5108973;28;20127;-76
2022/05/02 01:03:28;;;;;;;6.45;4.63;;;6.20;99.90;;;;;;5108899;28;20105;-76
2022/05/02 01:08:39;;;;;;;5.57;4.88;;;6.10;99.90;;;;;;5101718;28;20101;-77
2022/05/02 01:11:05;;;;;;;4.65;4.22;;;6.00;99.90;;;;;;5109921;28;20495;-76
2022/05/02 01:13:45;;;;;;;7.63;4.57;;;6.00;99.90;;;;;;5108453;28;20032;-76
2022/05/02 01:16:22;;;;;;;7.90;4.88;;;6.00;99.90;;;;;;5110051;28;20043;-76
2022/05/02 01:18:50;;;;;;;11.30;5.07;;;5.70;99.90;;;;;;5091224;28;20047;-76
2022/05/02 01:21:18;;;;;;;6.32;4.32;;;5.60;99.90;;;;;;5091446;28;20042;-75
2022/05/02 01:23:46;;;;;;;5.75;4.45;;;5.90;99.90;;;;;;5108119;28;20035;-76
2022/05/02 01:26:12;;;;;;;5.28;4.78;;;5.90;99.90;;;;;;5107771;28;20047;-75
2022/05/02 01:28:52;;;;;;;6.60;5.13;;;5.80;99.90;;;;;;5091525;28;20046;-75
2022/05/02 01:31:18;;;;;;;5.10;4.60;;;5.80;99.90;;;;;;5108616;28;20028;-75
2022/05/02 01:33:44;;;;;;;8.15;5.10;;;5.80;99.90;;;;;;5108771;28;20551;-76
2022/05/02 01:36:10;;;;;;;7.60;5.57;;;5.80;99.90;;;;;;5108311;28;20036;-76
2022/05/02 01:38:37;;;;;;;8.02;5.43;;;5.40;99.90;;;;;;5101375;28;20042;-76
2022/05/02 01:41:07;;;;;;;5.32;4.63;;;5.70;99.90;;;;;;5108410;28;20414;-76
2022/05/02 01:43:33;;;;;;;7.78;5.88;;;5.70;99.90;;;;;;5109891;28;20525;-76
2022/05/02 01:46:00;;;;;;;6.25;5.53;;;5.60;99.90;;;;;;5107685;28;20690;-76
2022/05/02 01:48:26;;;;;;;9.30;6.13;;;5.60;99.90;;;;;;5107026;28;20083;-76
2022/05/02 01:50:52;;;;;;;5.90;5.30;;;5.60;99.90;;;;;;5107561;28;20407;-76
2022/05/02 01:53:18;;;;;;;6.25;5.00;;;5.30;99.90;;;;;;5109059;28;20062;-76
2022/05/02 01:55:44;;;;;;;7.13;5.70;;;5.40;99.90;;;;;;5106952;28;20044;-76
2022/05/02 01:58:10;;;;;;;8.88;6.03;;;5.60;99.90;;;;;;5109061;28;20938;-77
2022/05/02 02:00:36;;;;;;;10.50;5.75;;;5.80;99.90;;;;;;5099801;28;20043;-76
2022/05/02 02:03:02;;;;;;;10.05;6.70;;;5.90;99.90;;;;;;5089912;28;20387;-76
2022/05/02 02:08:12;;;;;;;12.68;5.63;;;5.80;99.90;;;;;;5106895;28;20126;-76
2022/05/02 02:10:38;;;;;;;10.88;5.15;;;5.80;99.90;;;;;;5087216;28;20428;-76
2022/05/02 02:13:05;;;;;;;7.03;5.50;;;5.80;99.90;;;;;;5085596;28;20032;-76
2022/05/02 02:15:30;;;;;;;5.63;5.05;;;5.80;99.90;;;;;;5107163;28;20047;-76
2022/05/02 02:17:56;;;;;;;7.40;5.68;;;5.80;99.90;;;;;;5090631;28;20080;-76
2022/05/02 02:20:22;;;;;;;6.45;5.70;;;5.30;99.90;;;;;;5107625;28;20047;-75
2022/05/02 02:22:48;;;;;;;8.57;6.30;;;5.80;99.90;;;;;;5106554;28;20119;-76
2022/05/02 02:25:13;;;;;;;7.57;6.00;;;6.10;99.90;;;;;;5107068;28;20121;-76
2022/05/02 02:27:39;;;;;;;6.97;5.35;;;6.30;99.90;;;;;;5090800;28;20039;-76
2022/05/02 02:30:06;;;;;;;8.27;6.13;;;7.40;99.90;;;;;;5106461;28;20035;-75
2022/05/02 02:32:32;;;;;;;6.70;6.03;;;5.70;99.90;;;;;;5108579;28;20080;-76
2022/05/02 02:34:58;;;;;;;8.98;6.93;;;5.60;99.90;;;;;;5107902;28;20040;-76
2022/05/02 02:37:24;;;;;;;27.83;6.82;;;5.70;99.90;;;;;;5090126;28;20062;-76
2022/05/02 02:39:49;;;;;;;8.95;6.65;;;7.20;99.90;;;;;;5090287;28;20513;-76
2022/05/02 02:42:16;;;;;;;7.68;5.97;;;5.10;99.90;;;;;;5089771;28;20035;-75
2022/05/02 02:44:41;;;;;;;8.10;6.30;;;5.60;99.90;;;;;;5106514;28;20051;-75
2022/05/02 02:47:07;;;;;;;6.45;5.70;;;5.50;99.90;;;;;;5107993;28;20084;-76
2022/05/02 02:49:32;;;;;;;7.50;6.70;;;6.10;99.90;;;;;;5090050;28;20083;-77
2022/05/02 02:51:58;;;;;;;7.50;6.00;;;5.60;99.90;;;;;;5106225;28;20046;-76
2022/05/02 02:54:24;;;;;;;8.88;5.82;;;5.60;99.90;;;;;;5106909;28;20510;-76
2022/05/02 02:56:49;;;;;;;8.70;5.72;;;5.30;99.90;;;;;;5106729;28;20038;-76
2022/05/02 02:59:15;;;;;;;7.53;6.63;;;5.50;99.90;;;;;;5107691;28;20046;-76
2022/05/02 03:01:41;;;;;;;10.10;6.20;;;5.40;99.90;;;;;;5108601;28;20056;-75
2022/05/02 03:06:52;;;;;;;8.65;6.18;;;5.50;99.90;;;;;;5101213;28;20128;-76
2022/05/02 03:09:18;;;;;;;7.78;5.70;;;5.50;99.90;;;;;;5106964;28;20040;-76
2022/05/02 03:11:45;;;;;;;7.22;5.80;;;7.40;99.90;;;;;;5107411;28;20106;-76
2022/05/02 03:14:10;;;;;;;7.25;6.00;;;7.10;99.90;;;;;;5107772;28;20072;-76
2022/05/02 03:16:36;;;;;;;6.70;6.03;;;5.50;99.90;;;;;;5107245;28;20127;-76
2022/05/02 03:19:02;;;;;;;10.13;7.13;;;5.50;99.90;;;;;;5107259;28;20658;-76
2022/05/02 03:21:28;;;;;;;10.35;7.03;;;5.40;99.90;;;;;;5107405;28;20039;-76
2022/05/02 03:23:53;;;;;;;7.38;6.30;;;5.40;99.90;;;;;;5110258;28;20027;-76
2022/05/02 03:26:19;;;;;;;13.50;6.20;;;5.40;99.90;;;;;;5111252;28;20040;-76
2022/05/02 03:28:45;;;;;;;11.43;6.63;;;5.40;99.90;;;;;;5093876;28;20104;-76
2022/05/02 03:31:10;;;;;;;13.30;7.30;;;6.80;99.90;;;;;;5111950;28;20031;-76
2022/05/02 03:33:36;;;;;;;13.07;7.25;;;7.10;99.90;;;;;;5093205;28;20051;-75
2022/05/02 03:36:02;;;;;;;6.38;5.78;;;5.30;99.90;;;;;;5110744;28;20071;-75
2022/05/02 03:38:27;;;;;;;10.57;6.22;;;5.30;99.90;;;;;;5112417;28;20047;-75
2022/05/02 03:40:53;;;;;;;8.98;7.40;;;7.50;99.90;;;;;;5111259;28;20380;-75
2022/05/02 03:43:19;;;;;;;11.45;6.90;;;5.30;99.90;;;;;;5110888;28;20027;-75
2022/05/02 03:45:44;;;;;;;10.75;6.72;;;5.30;99.90;;;;;;5110483;28;20453;-75
2022/05/02 03:48:10;;;;;;;8.65;7.25;;;5.10;99.90;;;;;;5111391;28;20066;-76
2022/05/02 03:50:36;;;;;;;9.20;6.43;;;5.20;99.90;;;;;;5093677;28;20504;-76
2022/05/02 03:53:01;;;;;;;6.97;6.38;;;4.60;99.90;;;;;;5111963;28;20034;-76
2022/05/02 03:55:27;;;;;;;7.78;6.75;;;5.20;99.90;;;;;;5092701;28;20093;-76
2022/05/02 03:57:52;;;;;;;10.50;7.00;;;5.20;99.90;;;;;;5093266;28;20046;-76
2022/05/02 04:00:19;;;;;;;7.40;6.70;;;5.60;99.90;;;;;;5110041;28;20048;-76
2022/05/02 04:02:44;;;;;;;7.47;6.65;;;5.40;99.90;;;;;;5101868;28;20394;-76
2022/05/02 04:05:10;;;;;;;7.25;6.55;;;5.10;99.90;;;;;;5110233;28;20089;-76
2022/05/02 04:07:36;;;;;;;8.05;7.25;;;5.10;99.90;;;;;;5110228;28;20047;-76
2022/05/02 04:10:03;;;;;;;7.80;6.40;;;5.30;99.90;;;;;;5110315;28;20044;-76
2022/05/02 04:12:39;;;;;;;9.38;6.95;;;5.10;99.90;;;;;;5111892;28;20047;-75
2022/05/02 04:15:07;;;;;;;9.55;6.97;;;5.10;99.90;;;;;;5110269;28;20487;-76
2022/05/02 04:17:33;;;;;;;11.02;6.90;;;5.10;99.90;;;;;;5110531;28;20044;-75
2022/05/02 04:19:58;;;;;;;8.75;7.78;;;6.00;99.90;;;;;;5109679;28;20442;-75
2022/05/02 04:22:24;;;;;;;9.73;6.90;;;5.10;99.90;;;;;;5109593;28;20143;-75
2022/05/02 04:24:49;;;;;;;8.15;7.20;;;6.10;99.90;;;;;;5109683;28;20083;-76
2022/05/02 04:27:15;;;;;;;7.63;6.93;;;5.10;99.90;;;;;;5111316;28;20042;-76
2022/05/02 04:29:41;;;;;;;8.30;7.20;;;5.10;99.90;;;;;;5092613;28;20051;-76
2022/05/02 04:32:06;;;;;;;10.20;8.38;;;5.10;99.90;;;;;;5109093;28;20043;-75
2022/05/02 04:34:32;;;;;;;12.82;8.27;;;5.20;99.90;;;;;;5111396;28;20528;-75
2022/05/02 04:36:58;;;;;;;8.75;7.80;;;5.20;99.90;;;;;;5110417;28;20035;-75
2022/05/02 04:39:23;;;;;;;9.50;7.30;;;5.10;99.90;;;;;;5093011;28;20065;-76
2022/05/02 04:41:49;;;;;;;10.80;7.78;;;6.20;99.90;;;;;;5109578;28;20035;-76
2022/05/02 04:44:14;;;;;;;9.38;7.07;;;5.20;99.90;;;;;;5108905;28;20047;-76
2022/05/02 04:46:41;;;;;;;8.32;7.53;;;5.90;99.90;;;;;;5110116;28;20081;-76
2022/05/02 04:49:07;;;;;;;8.63;7.93;;;5.00;99.90;;;;;;5092196;28;20047;-75
2022/05/02 04:51:32;;;;;;;12.65;7.80;;;5.20;99.90;;;;;;5109213;28;20084;-76
2022/05/02 04:53:58;;;;;;;9.75;7.63;;;5.60;99.90;;;;;;5091885;28;20047;-75
2022/05/02 04:56:24;;;;;;;8.35;7.55;;;5.20;99.90;;;;;;5092777;28;20050;-76
2022/05/02 04:58:50;;;;;;;9.35;7.97;;;5.20;99.90;;;;;;5108479;28;20043;-76
2022/05/02 05:01:15;;;;;;;8.35;7.38;;;5.20;99.90;;;;;;5109029;28;20093;-75
2022/05/02 05:03:41;;;;;;;8.05;7.25;;;5.30;99.90;;;;;;5108376;28;20074;-75
2022/05/02 05:06:07;;;;;;;10.27;7.72;;;5.30;99.90;;;;;;5108947;28;20124;-75
2022/05/02 05:08:33;;;;;;;8.55;7.47;;;5.30;99.90;;;;;;5110724;28;20426;-77
2022/05/02 05:11:44;;;;;;;10.52;7.72;;;5.30;99.90;;;;;;5070715;28;20032;-76
2022/05/02 05:17:27;;;;;;;8.98;7.50;;;5.30;99.90;;;;;;5102132;28;20092;-76
2022/05/02 05:20:28;;;;;;;8.18;7.38;;;5.40;99.90;;;;;;5100701;28;20044;-76
2022/05/02 05:22:53;;;;;;;8.00;7.20;;;5.20;99.90;;;;;;5041430;28;20041;-76
2022/05/02 05:25:42;;;;;;;8.00;6.88;;;5.40;99.90;;;;;;5077510;28;20059;-76
2022/05/02 05:28:16;;;;;;;8.45;7.55;;;6.70;99.90;;;;;;5085370;28;20080;-76
2022/05/02 05:30:47;;;;;;;9.90;7.10;;;5.40;99.90;;;;;;5092317;28;20426;-76
2022/05/02 05:33:49;;;;;;;9.40;7.07;;;5.70;99.90;;;;;;5107535;28;20468;-76
2022/05/02 05:36:39;;;;;;;8.88;7.65;;;5.00;99.90;;;;;;5102962;28;20088;-75
2022/05/02 05:39:06;;;;;;;9.85;8.95;;;5.60;99.90;;;;;;5083642;28;20120;-76
2022/05/02 05:41:47;;;;;;;12.25;9.38;;;5.60;99.90;;;;;;5110096;28;20527;-76
2022/05/02 05:44:31;;;;;;;8.65;7.65;;;5.60;99.90;;;;;;5107198;28;20040;-76
2022/05/02 05:47:19;;;;;;;9.57;8.32;;;6.60;99.90;;;;;;5082257;28;20044;-76
2022/05/02 05:50:05;;;;;;;8.43;7.63;;;5.70;99.90;;;;;;5089331;28;20075;-76
2022/05/02 05:52:45;;;;;;;9.85;8.93;;;5.70;99.90;;;;;;5109636;28;20184;-76
2022/05/02 05:55:26;;;;;;;10.45;8.63;;;5.80;99.90;;;;;;5107750;28;20418;-76
2022/05/02 05:58:02;;;;;;;87.13;59.15;;;5.80;99.90;;;;;;5107747;28;20084;-76
2022/05/02 06:00:34;;;;;;;20.48;16.77;;;5.80;99.90;;;;;;5090521;28;20062;-76
2022/05/02 06:02:59;;;;;;;93.10;61.38;;;5.90;99.90;;;;;;5099501;28;20035;-76
2022/05/02 06:05:26;;;;;;;25.98;20.23;;;6.10;99.90;;;;;;5091216;28;20073;-76
2022/05/02 06:07:52;;;;;;;14.40;12.18;;;6.00;99.90;;;;;;5108222;28;20043;-75
2022/05/02 06:10:18;;;;;;;15.15;10.85;;;5.90;99.90;;;;;;5091198;28;20035;-76
2022/05/02 06:12:45;;;;;;;12.82;10.30;;;6.00;99.90;;;;;;5090635;28;20093;-75
2022/05/02 06:20:46;;;;;;;14.02;11.82;;;6.20;99.90;;;;;;5107626;28;20147;-76
2022/05/02 06:23:13;;;;;;;12.32;11.18;;;6.40;99.90;;;;;;5106620;28;20039;-76
2022/05/02 06:25:41;;;;;;;15.13;12.20;;;6.40;99.90;;;;;;5109528;28;20078;-76
2022/05/02 06:28:08;;;;;;;27.13;20.38;;;6.40;99.90;;;;;;5107877;28;20036;-77
2022/05/02 06:30:39;;;;;;;16.23;13.40;;;6.50;99.90;;;;;;5091420;28;20048;-76
2022/05/02 06:33:12;;;;;;;14.00;11.52;;;6.60;99.90;;;;;;5082402;28;20044;-77
2022/05/02 06:35:58;;;;;;;13.53;10.30;;;6.40;99.90;;;;;;5107318;28;20092;-76
2022/05/02 06:38:59;;;;;;;12.23;9.50;;;8.40;99.90;;;;;;5084084;28;20492;-76
2022/05/02 06:41:38;;;;;;;16.77;10.95;;;7.00;99.90;;;;;;5102645;28;20040;-77
2022/05/02 06:44:10;;;;;;;18.77;10.95;;;6.80;99.90;;;;;;5098336;28;20565;-76
2022/05/02 06:46:45;;;;;;;13.27;9.85;;;7.10;99.90;;;;;;5107996;28;20035;-76
2022/05/02 06:49:16;;;;;;;12.45;9.95;;;7.20;99.90;;;;;;5078933;28;20052;-76
2022/05/02 06:51:49;;;;;;;12.98;10.00;;;7.30;99.90;;;;;;5105026;28;20055;-76
2022/05/02 06:54:28;;;;;;;13.68;9.50;;;7.40;99.90;;;;;;5107012;28;20043;-76
2022/05/02 06:57:14;;;;;;;20.20;9.98;;;7.60;99.90;;;;;;5111289;28;20388;-76
2022/05/02 07:00:05;;;;;;;12.20;9.88;;;7.70;99.90;;;;;;5108763;27;20036;-76
2022/05/02 07:03:08;;;;;;;9.73;8.75;;;7.80;99.90;;;;;;5091717;28;20032;-75
2022/05/02 07:06:05;;;;;;;13.55;9.75;;;7.90;99.90;;;;;;5098955;28;20081;-76
2022/05/02 07:08:38;;;;;;;13.25;9.15;;;8.10;99.90;;;;;;5111374;28;20036;-76
2022/05/02 07:11:06;;;;;;;16.25;10.43;;;8.20;99.90;;;;;;5114157;28;20039;-76
2022/05/02 07:14:07;;;;;;;12.60;9.65;;;9.60;99.90;;;;;;5081452;28;20399;-76
2022/05/02 07:16:38;;;;;;;10.95;8.85;;;8.30;99.90;;;;;;5111194;28;20059;-77
2022/05/02 07:19:25;;;;;;;10.07;8.85;;;8.30;99.90;;;;;;5096846;28;20097;-77
2022/05/02 07:22:22;;;;;;;8.88;7.97;;;8.50;99.90;;;;;;5097364;28;20044;-77
2022/05/02 07:25:07;;;;;;;8.93;8.02;;;7.40;99.90;;;;;;5093624;28;20577;-76
2022/05/02 07:27:32;;;;;;;;;;;8.70;99.90;;;;;;5095346;28;20406;-76
2022/05/02 07:29:59;;;;;;;11.02;7.78;;;8.30;99.90;;;;;;5098476;28;19920;-76
2022/05/02 07:32:26;;;;;;;8.18;7.38;;;10.30;99.90;;;;;;5093558;28;20043;-76
2022/05/02 07:34:54;;;;;;;10.00;6.93;;;10.30;99.90;;;;;;5097573;28;20059;-76
2022/05/02 07:37:22;;;;;;;8.60;7.38;;;10.00;99.90;;;;;;5098353;28;20075;-76
2022/05/02 07:39:49;;;;;;;10.02;7.43;;;8.90;99.90;;;;;;5098547;28;20484;-77
2022/05/02 07:42:15;;;;;;;14.93;7.55;;;9.00;99.90;;;;;;5098590;28;20100;-77
2022/05/02 07:44:43;;;;;;;9.27;7.45;;;10.40;99.90;;;;;;5098630;28;20479;-76
2022/05/02 07:47:11;;;;;;;8.60;7.75;;;8.70;99.90;;;;;;5095187;28;20039;-75
2022/05/02 07:49:39;;;;;;;10.55;7.50;;;10.30;99.90;;;;;;5115580;28;20506;-76
2022/05/02 07:52:08;;;;;;;11.32;8.18;;;8.80;99.90;;;;;;5115104;28;20055;-75
2022/05/02 07:54:40;;;;;;;10.68;8.25;;;9.40;99.90;;;;;;5097649;28;20423;-75
2022/05/02 07:57:07;;;;;;;9.15;7.53;;;9.00;99.90;;;;;;5097774;28;20043;-75
2022/05/02 07:59:38;;;;;;;10.30;8.25;;;9.50;99.90;;;;;;5078709;28;20039;-76
2022/05/02 08:02:07;;;;;;;9.73;7.85;;;11.10;99.90;;;;;;5113714;28;20474;-76
2022/05/02 08:04:37;;;;;;;11.43;8.05;;;11.00;99.90;;;;;;5114808;28;20071;-76
2022/05/02 08:07:14;;;;;;;10.63;8.45;;;11.00;99.90;;;;;;5095641;28;20096;-76
2022/05/02 08:10:04;;;;;;;8.45;7.63;;;9.80;99.90;;;;;;5095757;28;20471;-76
2022/05/02 08:12:39;;;;;;;7.85;7.05;;;9.80;99.90;;;;;;5107676;28;20083;-76
2022/05/02 08:15:12;;;;;;;12.23;8.02;;;11.70;99.90;;;;;;5093536;28;20116;-76
2022/05/02 08:17:55;;;;;;;12.32;7.43;;;11.60;99.90;;;;;;5111998;28;20265;-76
2022/05/02 08:20:39;;;;;;;10.60;7.60;;;10.00;99.90;;;;;;5089512;28;20785;-76
2022/05/02 08:29:55;;;;;;;8.40;7.28;;;10.10;99.90;;;;;;5112696;28;20048;-74
2022/05/02 08:32:58;;;;;;;12.75;7.35;;;10.30;99.90;;;;;;5100614;28;20475;-74
2022/05/02 08:35:29;;;;;;;14.13;7.75;;;10.50;99.90;;;;;;5105022;28;20039;-76
2022/05/02 08:38:14;;;;;;;12.55;7.25;;;10.60;99.90;;;;;;5093605;28;20050;-76
2022/05/02 08:41:03;;;;;;;8.13;6.78;;;10.70;99.90;;;;;;5095418;28;20109;-76
2022/05/02 08:43:41;;;;;;;9.95;7.32;;;12.60;99.90;;;;;;5083370;28;20621;-76
2022/05/02 08:46:27;;;;;;;10.05;7.57;;;10.80;99.90;;;;;;5111581;28;20089;-76
2022/05/02 08:49:35;;;;;;;8.90;7.25;;;10.90;99.90;;;;;;5110018;28;20059;-77
2022/05/02 08:52:19;;;;;;;10.73;7.47;;;11.10;99.90;;;;;;5106816;28;20804;-76
2022/05/02 08:55:28;;;;;;;9.10;7.10;;;12.80;99.90;;;;;;5111710;28;20043;-76
2022/05/02 08:58:31;;;;;;;11.75;7.70;;;11.20;99.90;;;;;;5101490;28;20169;-76
2022/05/02 09:01:29;;;;;;;9.48;6.82;;;11.20;99.90;;;;;;5110933;28;20040;-76
2022/05/02 09:04:27;;;;;;;8.98;6.97;;;11.40;99.90;;;;;;5080513;28;20047;-76
2022/05/02 09:07:08;;;;;;;11.50;7.28;;;12.90;99.90;;;;;;5094065;28;20051;-76
2022/05/02 09:10:09;;;;;;;10.98;7.53;;;11.50;99.90;;;;;;5110418;28;20063;-76
2022/05/02 09:12:47;;;;;;;8.30;7.47;;;12.50;99.90;;;;;;5061795;28;20047;-75
2022/05/02 09:15:40;;;;;;;8.60;7.32;;;11.80;99.90;;;;;;5110566;28;20048;-75
2022/05/02 09:18:30;;;;;;;10.57;6.95;;;11.90;99.90;;;;;;5092183;28;20043;-76
2022/05/02 09:21:04;;;;;;;9.00;7.05;;;12.10;99.90;;;;;;5091980;28;20043;-75
2022/05/02 09:23:29;;;;;;;11.70;6.25;;;12.30;99.90;;;;;;5097386;28;20093;-75
2022/05/02 09:26:08;;;;;;;8.55;6.95;;;12.40;99.90;;;;;;5110133;28;20518;-75
2022/05/02 09:28:55;;;;;;;8.88;6.63;;;12.40;99.90;;;;;;5103873;28;20032;-75
2022/05/02 09:31:36;;;;;;;8.80;6.03;;;12.40;99.90;;;;;;5109802;28;20040;-76
2022/05/02 09:34:18;;;;;;;8.30;6.05;;;12.50;99.90;;;;;;5107173;28;20048;-75
2022/05/02 09:37:03;;;;;;;10.75;7.05;;;12.60;99.90;;;;;;5093282;28;20513;-75
2022/05/02 09:40:07;;;;;;;9.52;6.32;;;12.70;99.90;;;;;;5092209;28;20146;-76
2022/05/02 09:43:11;;;;;;;7.80;6.80;;;12.80;99.90;;;;;;5101078;28;20048;-76
2022/05/02 09:52:02;;;;;;;14.73;7.55;;;13.10;99.90;;;;;;5105013;28;20048;-76
2022/05/02 09:57:34;;;;;;;7.32;6.43;;;13.30;99.90;;;;;;5111404;28;20047;-75
2022/05/02 10:02:58;;;;;;;8.25;5.88;;;13.50;99.90;;;;;;5105551;28;20049;-76
2022/05/02 10:05:39;;;;;;;11.02;5.68;;;13.50;99.90;;;;;;5091004;28;20043;-76
2022/05/02 10:08:30;;;;;;;6.10;5.50;;;13.60;99.90;;;;;;5108892;28;20047;-76
2022/05/02 10:11:14;;;;;;;6.35;5.32;;;13.70;99.90;;;;;;5083944;28;20491;-76
2022/05/02 10:13:46;;;;;;;9.00;5.75;;;13.80;99.90;;;;;;5089736;28;20035;-76
2022/05/02 10:16:36;;;;;;;8.35;5.97;;;13.90;99.90;;;;;;5089517;28;20093;-76
2022/05/02 10:19:16;;;;;;;7.43;6.05;;;14.00;99.90;;;;;;5110660;28;20075;-76
2022/05/02 10:22:03;;;;;;;6.65;5.50;;;14.00;99.90;;;;;;5102893;28;20054;-76
2022/05/02 10:24:53;;;;;;;8.35;6.18;;;14.00;99.90;;;;;;5092832;28;20066;-76
2022/05/02 10:27:45;;;;;;;10.07;5.70;;;14.30;99.90;;;;;;5088071;28;20050;-75
2022/05/02 10:30:12;;;;;;;9.18;5.97;;;14.20;99.90;;;;;;5107925;28;20099;-76
2022/05/02 10:32:46;;;;;;;9.18;5.78;;;14.20;99.90;;;;;;5109773;28;20117;-75
2022/05/02 10:35:17;;;;;;;7.10;5.18;;;14.10;99.90;;;;;;5109260;28;20054;-75
2022/05/02 10:37:59;;;;;;;7.70;5.70;;;14.50;99.90;;;;;;5109482;28;20119;-76
2022/05/02 10:40:38;;;;;;;6.68;5.57;;;14.10;99.90;;;;;;5110319;28;20093;-76
2022/05/02 10:43:06;;;;;;;6.60;4.93;;;14.10;99.90;;;;;;5090641;28;20028;-76
2022/05/02 10:45:37;;;;;;;8.63;5.65;;;15.50;99.90;;;;;;5100982;28;20555;-77
2022/05/02 10:48:26;;;;;;;8.32;5.97;;;14.30;99.90;;;;;;5108622;28;20118;-77
2022/05/02 10:51:11;;;;;;;6.53;5.22;;;14.30;99.90;;;;;;5055180;28;20048;-76
2022/05/02 10:54:24;;;;;;;8.60;6.43;;;14.30;99.90;;;;;;5103154;28;20545;-75
2022/05/02 10:56:58;;;;;;;13.93;5.90;;;14.30;99.90;;;;;;5073867;28;20044;-75
2022/05/02 10:59:30;;;;;;;9.98;5.93;;;14.30;99.90;;;;;;5089062;28;20100;-76
2022/05/02 11:02:20;;;;;;;8.38;5.20;;;14.30;99.90;;;;;;5095996;28;20499;-76
2022/05/02 11:05:06;;;;;;;10.80;6.20;;;14.40;99.90;;;;;;5107057;28;20120;-76
2022/05/02 11:07:53;;;;;;;5.57;5.00;;;14.60;99.90;;;;;;5107965;28;20097;-75
2022/05/02 11:10:24;;;;;;;7.68;5.35;;;14.70;99.90;;;;;;5108894;28;20043;-75
2022/05/02 11:13:11;;;;;;;9.65;5.47;;;15.00;99.90;;;;;;5108484;28;20051;-76
2022/05/02 11:15:45;;;;;;;6.90;5.60;;;15.20;99.70;;;;;;5100493;28;20047;-76
2022/05/02 11:21:43;;;;;;;8.15;6.72;;;15.50;98.90;;;;;;5103842;28;20043;-76
2022/05/02 11:24:24;;;;;;;5.78;5.28;;;16.00;99.00;;;;;;5109203;28;20043;-76
2022/05/02 11:26:59;;;;;;;7.38;4.60;;;16.40;98.50;;;;;;5102405;28;20062;-76
2022/05/02 11:29:44;;;;;;;6.15;4.95;;;16.60;97.70;;;;;;5109134;28;20048;-76
2022/05/02 11:32:45;;;;;;;5.82;4.93;;;16.80;97.30;;;;;;5107556;28;20052;-76
2022/05/02 11:35:24;;;;;;;7.53;4.88;;;17.10;96.50;;;;;;5108300;28;20446;-77
2022/05/02 11:38:16;;;;;;;5.88;4.63;;;17.30;95.50;;;;;;5108294;28;20040;-76
2022/05/02 11:41:12;;;;;;;4.45;4.07;;;17.50;95.20;;;;;;5102875;28;20128;-77
2022/05/02 11:43:38;;;;;;;5.80;4.05;;;17.70;94.90;;;;;;5109933;28;20059;-76
2022/05/02 11:46:15;;;;;;;5.20;4.32;;;18.50;94.80;;;;;;5110993;28;20027;-76
2022/05/02 11:48:47;;;;;;;5.57;5.07;;;18.10;93.90;;;;;;5104651;28;20059;-76
2022/05/02 11:51:40;;;;;;;7.47;4.03;;;18.00;93.10;;;;;;5112303;28;20479;-76
2022/05/02 11:54:32;;;;;;;4.72;3.80;;;18.00;92.30;;;;;;5108317;28;20135;-76
2022/05/02 11:57:20;;;;;;;3.65;3.35;;;18.20;91.20;;;;;;5103136;28;20048;-77
2022/05/02 12:00:00;;;;;;;5.38;3.63;;;18.20;90.10;;;;;;5093768;28;20065;-77
2022/05/02 12:02:44;;;;;;;5.00;3.03;;;18.30;90.60;;;;;;5112484;28;20406;-77
2022/05/02 12:05:20;;;;;;;3.53;2.80;;;19.10;90.40;;;;;;5110736;27;20087;-76
2022/05/02 12:07:58;;;;;;;2.53;2.33;;;18.40;90.50;;;;;;5103588;27;20050;-77
2022/05/02 12:10:41;;;;;;;3.33;2.92;;;18.50;90.40;;;;;;5095174;28;20043;-77
2022/05/02 12:13:18;;;;;;;6.07;3.58;;;18.80;89.60;;;;;;5093397;28;20054;-77
2022/05/02 12:16:01;;;;;;;2.92;2.72;;;20.00;89.40;;;;;;5109320;28;20507;-78
2022/05/02 12:19:03;;;;;;;5.22;3.38;;;19.30;87.50;;;;;;5095715;28;20046;-78
2022/05/02 12:21:35;;;;;;;5.15;3.13;;;19.40;86.40;;;;;;5098699;28;20055;-77
2022/05/02 12:24:02;;;;;;;4.80;3.50;;;19.40;86.20;;;;;;5114194;27;21331;-77
2022/05/02 12:26:28;;;;;;;3.58;3.28;;;19.50;84.30;;;;;;5107945;27;20171;-77
2022/05/02 12:29:03;;;;;;;3.85;3.53;;;19.60;82.50;;;;;;5076054;28;20040;-77
2022/05/02 12:31:37;;;;;;;5.80;3.58;;;19.60;83.40;;;;;;5113147;28;20051;-77
2022/05/02 12:34:04;;;;;;;2.97;2.67;;;20.30;84.10;;;;;;5108895;28;20089;-78
2022/05/02 12:36:46;;;;;;;2.78;2.53;;;20.00;83.40;;;;;;5109148;27;20502;-78
2022/05/02 12:39:23;;;;;;;2.75;2.10;;;21.00;82.50;;;;;;5109777;28;20815;-78
2022/05/02 12:41:53;;;;;;;3.30;3.00;;;20.30;82.60;;;;;;5093862;28;20048;-76
2022/05/02 12:44:24;;;;;;;6.75;4.85;;;21.30;82.50;;;;;;5112642;28;20084;-76
2022/05/02 12:46:52;;;;;;;5.28;3.45;;;20.40;82.70;;;;;;5065732;28;20127;-76
2022/05/02 12:49:26;;;;;;;4.95;3.33;;;20.60;82.10;;;;;;5111952;28;20048;-76
2022/05/02 12:51:56;;;;;;;4.03;3.30;;;20.70;82.50;;;;;;5109028;28;20089;-76
2022/05/02 12:54:26;;;;;;;2.72;2.53;;;21.80;82.50;;;;;;5105018;28;20071;-76
2022/05/02 13:02:42;;;;;;;3.40;3.08;;;21.00;80.70;;;;;;5095828;28;20043;-77
2022/05/02 13:05:21;;;;;;;6.85;3.40;;;21.50;80.70;;;;;;5092247;28;20050;-77
2022/05/02 13:07:54;;;;;;;5.30;3.42;;;21.10;78.90;;;;;;5109122;28;20036;-77
2022/05/02 13:10:23;;;;;;;3.42;3.00;;;20.70;79.70;;;;;;5089438;28;20040;-77
2022/05/02 13:13:00;;;;;;;3.45;3.08;;;20.70;80.70;;;;;;5109966;28;20035;-77
2022/05/02 13:15:27;;;;;;;4.10;2.75;;;20.80;80.30;;;;;;5112780;27;20050;-77
2022/05/02 13:18:01;;;;;;;4.18;3.40;;;20.90;80.70;;;;;;5105573;27;20122;-77
2022/05/02 13:20:29;;;;;;;4.43;3.10;;;20.90;80.00;;;;;;5109894;28;20046;-77
2022/05/02 13:23:00;;;;;;;4.07;3.50;;;21.00;79.40;;;;;;5091934;28;20044;-77
2022/05/02 13:25:55;;;;;;;4.20;3.40;;;21.10;78.60;;;;;;5106965;28;20128;-77
2022/05/02 13:28:32;;;;;;;3.90;3.50;;;21.00;78.90;;;;;;5108352;28;20197;-77
2022/05/02 13:31:04;;;;;;;3.55;3.13;;;21.00;77.80;;;;;;5108798;27;20040;-77
2022/05/02 13:33:38;;;;;;;5.28;3.00;;;20.90;78.00;;;;;;5111567;28;20107;-77
2022/05/02 13:36:06;;;;;;;3.40;3.10;;;21.50;79.60;;;;;;5099763;28;20044;-74
2022/05/02 13:38:44;;;;;;;3.15;2.85;;;20.90;79.60;;;;;;5091019;28;20043;-77
2022/05/02 13:41:30;;;;;;;6.88;3.25;;;21.40;80.00;;;;;;5109104;28;20364;-77
2022/05/02 13:44:06;;;;;;;3.00;2.80;;;21.10;78.70;;;;;;5101833;28;20055;-76
2022/05/02 13:46:48;;;;;;;3.55;3.00;;;21.00;78.70;;;;;;5107803;27;20039;-77
2022/05/02 13:49:26;;;;;;;3.55;2.75;;;20.90;77.80;;;;;;5099027;28;20048;-74
2022/05/02 13:52:05;;;;;;;7.63;3.70;;;20.80;79.10;;;;;;5110833;28;20063;-73
2022/05/02 13:54:35;;;;;;;4.43;2.85;;;20.70;78.60;;;;;;5109405;28;20072;-74
2022/05/02 13:57:22;;;;;;;3.95;2.55;;;20.70;77.90;;;;;;5090307;28;20028;-74
2022/05/02 14:00:10;;;;;;;3.35;2.80;;;21.00;77.90;;;;;;5110128;28;20574;-73
2022/05/02 14:03:10;;;;;;;3.33;3.00;;;20.60;78.00;;;;;;5092044;28;20438;-73
2022/05/02 14:05:46;;;;;;;5.53;2.90;;;20.60;78.00;;;;;;5110235;28;20059;-74
2022/05/02 14:08:12;;;;;;;3.25;2.97;;;20.50;78.30;;;;;;5104317;28;20051;-74
2022/05/02 14:10:58;;;;;;;6.28;3.67;;;20.60;79.00;;;;;;5110224;28;20037;-76
2022/05/02 14:13:26;;;;;;;6.18;4.20;;;20.60;79.00;;;;;;5089628;28;20047;-76